createdAt,value
2019-03-25T00:00:08.419Z,8.90
2019-03-25T00:02:37.467Z,9.00
2019-03-25T00:05:07.246Z,8.90
2019-03-25T00:07:36.206Z,8.80
2019-03-25T00:10:05.917Z,8.90
2019-03-25T00:12:34.894Z,8.90
2019-03-25T00:15:06.414Z,8.90
2019-03-25T00:17:35.361Z,8.80
2019-03-25T00:20:05.876Z,8.90
2019-03-25T00:22:34.834Z,8.90
2019-03-25T00:25:04.678Z,8.80
2019-03-25T00:27:33.643Z,8.80
2019-03-25T00:30:02.687Z,8.70
2019-03-25T00:32:31.658Z,8.60
2019-03-25T00:35:00.658Z,8.60
2019-03-25T00:37:29.601Z,8.60
2019-03-25T00:39:58.588Z,8.60
2019-03-25T00:42:29.028Z,8.60
2019-03-25T00:44:58.039Z,8.60
2019-03-25T00:47:27.003Z,8.50
2019-03-25T00:49:55.970Z,8.40
2019-03-25T00:52:24.937Z,8.30
2019-03-25T00:54:53.926Z,8.30
2019-03-25T00:57:22.887Z,8.20
2019-03-25T00:59:52.018Z,8.30
2019-03-25T01:02:20.991Z,8.10
2019-03-25T01:04:50.029Z,8.10
2019-03-25T01:07:19.056Z,8.10
2019-03-25T01:09:48.030Z,8.00
2019-03-25T01:12:16.991Z,8.10
2019-03-25T01:14:46.031Z,8.10
2019-03-25T01:17:15.063Z,8.00
2019-03-25T01:19:44.047Z,8.10
2019-03-25T01:22:12.995Z,8.00
2019-03-25T01:24:41.958Z,8.00
2019-03-25T01:27:10.923Z,8.00
2019-03-25T01:29:39.889Z,7.90
2019-03-25T01:32:08.850Z,7.90
2019-03-25T01:34:37.807Z,7.90
2019-03-25T01:37:06.866Z,7.90
2019-03-25T01:39:35.818Z,7.80
2019-03-25T01:42:04.862Z,7.80
2019-03-25T01:44:33.813Z,7.80
2019-03-25T01:47:02.817Z,7.70
2019-03-25T01:49:31.780Z,7.70
2019-03-25T01:52:00.755Z,7.70
2019-03-25T01:54:29.746Z,7.70
2019-03-25T01:56:58.732Z,7.80
2019-03-25T01:59:27.682Z,7.60
2019-03-25T02:01:56.662Z,7.60
2019-03-25T02:04:25.641Z,7.70
2019-03-25T02:06:54.602Z,7.70
2019-03-25T02:09:23.566Z,7.70
2019-03-25T02:11:52.557Z,7.70
2019-03-25T02:14:21.515Z,7.60
2019-03-25T02:16:50.494Z,7.60
2019-03-25T02:19:19.463Z,7.60
2019-03-25T02:21:48.422Z,7.50
2019-03-25T02:24:17.375Z,7.40
2019-03-25T02:26:46.349Z,7.40
2019-03-25T02:29:15.324Z,7.40
2019-03-25T02:31:44.297Z,7.40
2019-03-25T02:34:13.260Z,7.40
2019-03-25T02:36:42.236Z,7.40
2019-03-25T02:39:11.179Z,7.30
2019-03-25T02:41:40.166Z,7.30
2019-03-25T02:44:09.119Z,7.30
2019-03-25T02:46:38.080Z,7.30
2019-03-25T02:49:07.031Z,7.30
2019-03-25T02:51:36.023Z,7.20
2019-03-25T02:54:05.035Z,7.30
2019-03-25T02:56:34.004Z,7.20
2019-03-25T02:59:02.955Z,7.30
2019-03-25T03:01:31.947Z,7.30
2019-03-25T03:04:00.898Z,7.20
2019-03-25T03:06:29.883Z,7.20
2019-03-25T03:08:58.832Z,7.20
2019-03-25T03:11:27.806Z,7.20
2019-03-25T03:13:56.771Z,7.20
2019-03-25T03:16:25.744Z,7.20
2019-03-25T03:18:54.716Z,7.20
2019-03-25T03:21:23.690Z,7.20
2019-03-25T03:23:52.729Z,7.20
2019-03-25T03:26:21.707Z,7.20
2019-03-25T03:28:50.678Z,7.20
2019-03-25T03:31:19.675Z,7.20
2019-03-25T03:33:48.615Z,7.10
2019-03-25T03:36:17.599Z,7.00
2019-03-25T03:38:46.554Z,7.00
2019-03-25T03:41:15.540Z,7.10
2019-03-25T03:43:44.503Z,7.10
2019-03-25T03:46:13.557Z,7.10
2019-03-25T03:48:42.502Z,7.10
2019-03-25T03:51:11.628Z,7.10
2019-03-25T03:53:40.924Z,7.10
2019-03-25T03:56:13.456Z,7.00
2019-03-25T03:58:42.564Z,7.10
2019-03-25T04:01:11.619Z,7.10
2019-03-25T04:03:40.590Z,7.20
2019-03-25T04:06:09.585Z,7.20
2019-03-25T04:08:38.544Z,7.30
2019-03-25T04:11:07.517Z,7.40
2019-03-25T04:13:36.487Z,7.40
2019-03-25T04:16:05.456Z,7.30
2019-03-25T04:18:34.412Z,7.40
2019-03-25T04:21:03.383Z,7.30
2019-03-25T04:23:32.350Z,7.30
2019-03-25T04:26:01.397Z,7.10
2019-03-25T04:28:30.347Z,7.30
2019-03-25T04:30:59.329Z,7.20
2019-03-25T04:33:28.304Z,7.30
2019-03-25T04:35:57.265Z,7.20
2019-03-25T04:38:26.215Z,7.40
2019-03-25T04:40:55.226Z,7.30
2019-03-25T04:43:24.189Z,7.20
2019-03-25T04:45:53.150Z,7.30
2019-03-25T04:48:22.191Z,7.10
2019-03-25T04:50:51.143Z,7.00
2019-03-25T04:53:20.111Z,7.10
2019-03-25T04:55:49.134Z,7.20
2019-03-25T04:58:18.112Z,6.90
2019-03-25T05:00:47.086Z,7.20
2019-03-25T05:03:16.068Z,7.20
2019-03-25T05:05:45.030Z,7.10
2019-03-25T05:08:14.009Z,7.00
2019-03-25T05:10:42.968Z,7.10
2019-03-25T05:13:11.938Z,7.30
2019-03-25T05:15:40.911Z,7.10
2019-03-25T05:18:09.901Z,6.80
2019-03-25T05:20:38.858Z,7.20
2019-03-25T05:23:07.911Z,7.00
2019-03-25T05:25:36.883Z,7.10
2019-03-25T05:28:05.903Z,7.20
2019-03-25T05:30:34.900Z,7.20
2019-03-25T05:33:03.944Z,7.30
2019-03-25T05:35:32.898Z,7.20
2019-03-25T05:38:02.870Z,7.10
2019-03-25T05:40:31.842Z,7.00
2019-03-25T05:43:00.795Z,7.20
2019-03-25T05:45:29.862Z,7.00
2019-03-25T05:47:58.916Z,7.00
2019-03-25T05:50:27.881Z,6.90
2019-03-25T05:52:56.970Z,6.90
2019-03-25T05:55:26.090Z,7.20
2019-03-25T05:57:55.063Z,7.10
2019-03-25T06:00:25.671Z,7.00
2019-03-25T06:02:54.731Z,7.00
2019-03-25T06:05:23.719Z,7.20
2019-03-25T06:07:52.714Z,7.20
2019-03-25T06:10:21.678Z,7.40
2019-03-25T06:12:50.663Z,7.40
2019-03-25T06:15:19.625Z,7.40
2019-03-25T06:17:48.613Z,7.30
2019-03-25T06:20:17.655Z,7.40
2019-03-25T06:22:46.618Z,7.50
2019-03-25T06:25:15.662Z,7.40
2019-03-25T06:27:44.753Z,7.30
2019-03-25T06:30:14.050Z,7.40
2019-03-25T06:32:43.051Z,7.30
2019-03-25T06:35:12.153Z,7.50
2019-03-25T06:37:41.123Z,7.70
2019-03-25T06:40:11.503Z,7.40
2019-03-25T06:42:40.475Z,7.40
2019-03-25T06:45:11.093Z,7.60
2019-03-25T06:47:40.118Z,7.50
2019-03-25T06:50:09.721Z,7.20
2019-03-25T06:52:38.678Z,7.30
2019-03-25T06:55:09.200Z,7.30
2019-03-25T06:57:38.825Z,7.50
2019-03-25T07:00:10.174Z,7.70
2019-03-25T07:02:39.168Z,7.60
2019-03-25T07:05:08.596Z,7.80
2019-03-25T07:07:37.567Z,7.90
2019-03-25T07:10:07.178Z,7.80
2019-03-25T07:12:37.205Z,7.80
2019-03-25T07:15:08.031Z,7.90
2019-03-25T07:17:37.007Z,8.00
2019-03-25T07:20:08.084Z,8.10
2019-03-25T07:22:37.068Z,8.00
2019-03-25T07:25:06.586Z,8.00
2019-03-25T07:27:37.110Z,8.00
2019-03-25T07:30:07.934Z,8.10
2019-03-25T07:32:36.894Z,8.20
2019-03-25T07:35:07.029Z,8.30
2019-03-25T07:37:36.142Z,8.40
2019-03-25T07:40:07.345Z,8.20
2019-03-25T07:42:36.321Z,8.20
2019-03-25T07:45:07.771Z,8.10
2019-03-25T07:47:36.735Z,8.10
2019-03-25T07:50:07.608Z,8.20
2019-03-25T07:52:36.572Z,8.30
2019-03-25T07:55:06.678Z,8.20
2019-03-25T07:57:35.792Z,8.00
2019-03-25T08:00:14.983Z,8.10
2019-03-25T08:02:44.121Z,8.50
2019-03-25T08:05:13.385Z,8.50
2019-03-25T08:07:42.345Z,8.50
2019-03-25T08:10:11.839Z,8.20
2019-03-25T08:12:40.877Z,8.40
2019-03-25T08:15:10.713Z,8.30
2019-03-25T08:17:39.757Z,8.20
2019-03-25T08:20:10.726Z,8.50
2019-03-25T08:22:39.715Z,8.70
2019-03-25T08:25:08.803Z,8.70
2019-03-25T08:27:37.795Z,8.90
2019-03-25T08:30:11.230Z,8.90
2019-03-25T08:32:40.203Z,9.20
2019-03-25T08:35:09.393Z,9.00
2019-03-25T08:37:38.374Z,8.70
2019-03-25T08:40:07.786Z,8.90
2019-03-25T08:42:36.766Z,8.90
2019-03-25T08:45:06.877Z,9.40
2019-03-25T08:47:35.866Z,9.40
2019-03-25T08:50:07.432Z,9.60
2019-03-25T08:52:36.407Z,9.50
2019-03-25T08:55:08.567Z,9.40
2019-03-25T08:57:37.562Z,9.70
2019-03-25T09:00:09.043Z,9.70
2019-03-25T09:02:38.083Z,9.50
2019-03-25T09:05:08.791Z,9.80
2019-03-25T09:07:37.847Z,9.70
2019-03-25T09:10:10.234Z,9.80
2019-03-25T09:12:39.373Z,10.00
2019-03-25T09:15:10.271Z,9.90
2019-03-25T09:17:39.280Z,10.20
2019-03-25T09:20:10.088Z,10.40
2019-03-25T09:22:39.259Z,10.30
2019-03-25T09:25:08.679Z,10.20
2019-03-25T09:27:37.914Z,9.80
2019-03-25T09:30:08.582Z,10.10
2019-03-25T09:32:37.644Z,10.30
2019-03-25T09:35:07.951Z,10.30
2019-03-25T09:37:37.891Z,10.30
2019-03-25T09:40:08.596Z,10.50
2019-03-25T09:42:37.733Z,10.30
2019-03-25T09:45:08.259Z,10.50
2019-03-25T09:47:38.006Z,10.50
2019-03-25T09:50:07.744Z,10.80
2019-03-25T09:52:38.765Z,10.60
2019-03-25T09:55:08.657Z,11.10
2019-03-25T09:57:37.686Z,11.40
2019-03-25T10:00:11.301Z,11.20
2019-03-25T10:02:40.300Z,11.10
2019-03-25T10:05:09.510Z,11.00
2019-03-25T10:07:38.508Z,11.00
2019-03-25T10:10:08.603Z,11.20
2019-03-25T10:12:37.568Z,11.00
2019-03-25T10:15:08.393Z,11.00
2019-03-25T10:17:37.434Z,11.10
2019-03-25T10:20:07.851Z,11.10
2019-03-25T10:22:36.850Z,11.20
2019-03-25T10:25:08.053Z,11.30
2019-03-25T10:27:37.060Z,11.30
2019-03-25T10:30:12.065Z,11.40
2019-03-25T10:32:41.190Z,11.70
2019-03-25T10:35:10.401Z,10.90
2019-03-25T10:37:39.519Z,11.70
2019-03-25T10:40:10.305Z,11.30
2019-03-25T10:42:39.417Z,11.40
2019-03-25T10:45:09.640Z,11.10
2019-03-25T10:47:38.703Z,11.00
2019-03-25T10:50:07.987Z,11.50
2019-03-25T10:52:36.974Z,11.40
2019-03-25T10:55:07.883Z,11.40
2019-03-25T10:57:37.227Z,11.60
2019-03-25T11:00:11.727Z,11.30
2019-03-25T11:02:40.838Z,11.30
2019-03-25T11:05:10.564Z,11.20
2019-03-25T11:07:39.669Z,11.90
2019-03-25T11:10:09.222Z,11.90
2019-03-25T11:12:38.286Z,11.50
2019-03-25T11:15:08.783Z,11.40
2019-03-25T11:17:38.027Z,11.60
2019-03-25T11:20:08.030Z,11.60
2019-03-25T11:22:37.171Z,11.70
2019-03-25T11:25:07.467Z,11.70
2019-03-25T11:27:36.510Z,11.70
2019-03-25T11:30:09.982Z,11.50
2019-03-25T11:32:39.114Z,11.20
2019-03-25T11:35:09.411Z,11.40
2019-03-25T11:37:38.466Z,11.60
2019-03-25T11:40:08.160Z,11.60
2019-03-25T11:42:37.137Z,11.70
2019-03-25T11:45:08.234Z,11.40
2019-03-25T11:47:37.333Z,11.50
2019-03-25T11:50:07.237Z,11.40
2019-03-25T11:52:36.212Z,11.10
2019-03-25T11:55:07.323Z,11.10
2019-03-25T11:57:36.378Z,11.00
2019-03-25T12:00:07.772Z,11.20
2019-03-25T12:02:36.749Z,11.30
2019-03-25T12:05:07.768Z,11.30
2019-03-25T12:07:36.746Z,11.50
2019-03-25T12:10:06.945Z,11.60
2019-03-25T12:12:35.938Z,11.60
2019-03-25T12:15:08.432Z,11.60
2019-03-25T12:17:37.498Z,11.40
2019-03-25T12:20:07.306Z,10.80
2019-03-25T12:22:36.280Z,10.50
2019-03-25T12:25:08.279Z,10.10
2019-03-25T12:27:37.312Z,10.00
2019-03-25T12:30:11.213Z,9.70
2019-03-25T12:32:40.259Z,10.00
2019-03-25T12:35:09.478Z,10.40
2019-03-25T12:37:38.522Z,10.40
2019-03-25T12:40:08.081Z,10.50
2019-03-25T12:42:37.286Z,10.80
2019-03-25T12:45:07.324Z,10.80
2019-03-25T12:47:36.298Z,10.70
2019-03-25T12:50:07.028Z,10.90
2019-03-25T12:52:35.994Z,11.10
2019-03-25T12:55:06.013Z,11.10
2019-03-25T12:57:34.961Z,11.40
2019-03-25T13:00:06.291Z,11.60
2019-03-25T13:02:35.264Z,11.90
2019-03-25T13:05:06.109Z,11.70
2019-03-25T13:07:35.166Z,11.70
2019-03-25T13:10:06.306Z,11.50
2019-03-25T13:12:35.273Z,11.60
2019-03-25T13:15:06.755Z,11.70
2019-03-25T13:17:35.799Z,12.00
2019-03-25T13:20:06.841Z,12.40
2019-03-25T13:22:35.861Z,11.30
2019-03-25T13:25:05.738Z,11.80
2019-03-25T13:27:34.718Z,12.10
2019-03-25T13:30:05.630Z,12.40
2019-03-25T13:32:34.582Z,12.60
2019-03-25T13:35:04.649Z,11.60
2019-03-25T13:37:33.618Z,12.50
2019-03-25T13:40:03.271Z,12.40
2019-03-25T13:42:32.298Z,12.30
2019-03-25T13:45:01.344Z,11.60
2019-03-25T13:47:30.386Z,10.70
2019-03-25T13:49:59.342Z,10.80
2019-03-25T13:52:28.309Z,10.70
2019-03-25T13:54:57.355Z,10.80
2019-03-25T13:57:26.334Z,10.60
2019-03-25T14:00:03.287Z,10.50
2019-03-25T14:02:25.993Z,9.60
2019-03-25T14:04:54.988Z,9.90
2019-03-25T14:07:23.934Z,10.00
2019-03-25T14:09:52.914Z,9.90
2019-03-25T14:12:21.966Z,9.90
2019-03-25T14:14:50.931Z,10.30
2019-03-25T14:17:19.918Z,10.40
2019-03-25T14:19:48.903Z,10.20
2019-03-25T14:22:17.867Z,10.30
2019-03-25T14:24:46.881Z,10.60
2019-03-25T14:27:15.827Z,10.70
2019-03-25T14:29:44.811Z,10.80
2019-03-25T14:32:13.868Z,10.70
2019-03-25T14:34:45.030Z,10.50
2019-03-25T14:37:13.586Z,10.80
2019-03-25T14:39:42.570Z,10.80
2019-03-25T14:42:11.670Z,10.70
2019-03-25T14:44:40.642Z,11.20
2019-03-25T14:47:09.607Z,11.20
2019-03-25T14:49:38.830Z,11.10
2019-03-25T14:52:07.869Z,11.20
2019-03-25T14:54:37.381Z,11.40
2019-03-25T14:57:06.342Z,11.10
2019-03-25T14:59:35.302Z,10.50
2019-03-25T15:02:04.437Z,11.00
2019-03-25T15:04:33.397Z,10.80
2019-03-25T15:07:02.382Z,10.90
2019-03-25T15:09:31.422Z,11.00
2019-03-25T15:12:00.406Z,11.00
2019-03-25T15:14:29.374Z,11.00
2019-03-25T15:16:58.348Z,11.30
2019-03-25T15:19:27.454Z,11.10
2019-03-25T15:21:56.408Z,11.20
2019-03-25T15:24:25.390Z,11.00
2019-03-25T15:26:54.442Z,10.80
2019-03-25T15:29:23.431Z,10.80
2019-03-25T15:31:52.469Z,11.00
2019-03-25T15:34:21.465Z,10.80
2019-03-25T15:36:50.438Z,11.30
2019-03-25T15:39:19.420Z,11.30
2019-03-25T15:41:48.478Z,11.20
2019-03-25T15:44:17.461Z,11.30
2019-03-25T15:46:55.414Z,11.30
2019-03-25T15:49:17.098Z,11.30
2019-03-25T15:51:46.192Z,11.00
2019-03-25T15:54:15.222Z,11.00
2019-03-25T15:56:44.214Z,10.80
2019-03-25T15:59:13.175Z,11.00
2019-03-25T16:01:42.155Z,10.60
2019-03-25T16:04:11.287Z,10.40
2019-03-25T16:06:40.263Z,10.50
2019-03-25T16:09:09.481Z,10.30
2019-03-25T16:11:38.545Z,10.40
2019-03-25T16:14:07.531Z,10.30
2019-03-25T16:16:36.650Z,9.70
2019-03-25T16:19:05.760Z,9.70
2019-03-25T16:21:34.759Z,9.70
2019-03-25T16:24:03.711Z,9.40
2019-03-25T16:26:32.696Z,9.70
2019-03-25T16:29:01.664Z,9.60
2019-03-25T16:31:30.701Z,9.10
2019-03-25T16:33:59.756Z,9.60
2019-03-25T16:36:28.744Z,9.50
2019-03-25T16:38:57.710Z,9.50
2019-03-25T16:41:26.691Z,9.50
2019-03-25T16:43:55.673Z,9.40
2019-03-25T16:46:24.645Z,9.50
2019-03-25T16:48:55.207Z,9.40
2019-03-25T16:51:24.311Z,9.50
2019-03-25T16:53:53.271Z,9.40
2019-03-25T16:56:22.291Z,9.50
2019-03-25T16:58:51.303Z,9.50
2019-03-25T17:01:20.343Z,9.50
2019-03-25T17:03:49.329Z,9.30
2019-03-25T17:06:18.310Z,9.50
2019-03-25T17:08:47.275Z,9.40
2019-03-25T17:11:16.265Z,9.40
2019-03-25T17:13:45.365Z,9.40
2019-03-25T17:16:14.383Z,9.40
2019-03-25T17:18:43.391Z,9.70
2019-03-25T17:21:12.442Z,9.40
2019-03-25T17:23:41.406Z,9.30
2019-03-25T17:26:10.387Z,9.30
2019-03-25T17:28:39.363Z,9.20
2019-03-25T17:31:08.428Z,9.20
2019-03-25T17:33:37.378Z,9.30
2019-03-25T17:36:06.346Z,9.50
2019-03-25T17:38:35.306Z,9.20
2019-03-25T17:41:04.276Z,8.90
2019-03-25T17:43:33.344Z,8.70
2019-03-25T17:46:02.374Z,9.10
2019-03-25T17:48:31.347Z,8.90
2019-03-25T17:51:00.415Z,8.60
2019-03-25T17:53:29.399Z,8.70
2019-03-25T17:55:58.383Z,8.60
2019-03-25T17:58:27.442Z,8.70
2019-03-25T18:01:02.059Z,8.80
2019-03-25T18:03:31.050Z,8.70
2019-03-25T18:06:00.055Z,8.70
2019-03-25T18:08:29.050Z,8.70
2019-03-25T18:10:58.010Z,8.60
2019-03-25T18:13:26.987Z,8.70
2019-03-25T18:15:56.000Z,8.70
2019-03-25T18:18:25.018Z,8.60
2019-03-25T18:20:54.275Z,8.60
2019-03-25T18:23:23.315Z,8.60
2019-03-25T18:25:52.284Z,8.60
2019-03-25T18:28:21.260Z,8.40
2019-03-25T18:30:50.255Z,8.60
2019-03-25T18:33:19.215Z,8.70
2019-03-25T18:35:48.212Z,8.70
2019-03-25T18:38:17.337Z,8.70
2019-03-25T18:40:46.401Z,8.70
2019-03-25T18:43:15.354Z,8.70
2019-03-25T18:45:44.346Z,8.70
2019-03-25T18:48:13.498Z,8.70
2019-03-25T18:50:42.599Z,8.70
2019-03-25T18:53:11.577Z,8.60
2019-03-25T18:55:40.995Z,8.40
2019-03-25T18:58:10.077Z,8.70
2019-03-25T19:00:39.121Z,8.50
2019-03-25T19:03:08.192Z,8.50
2019-03-25T19:05:37.159Z,8.60
2019-03-25T19:08:06.520Z,8.50
2019-03-25T19:10:35.467Z,8.70
2019-03-25T19:13:04.466Z,8.60
2019-03-25T19:15:33.551Z,8.70
2019-03-25T19:18:02.522Z,8.80
2019-03-25T19:20:31.514Z,8.90
2019-03-25T19:23:00.549Z,8.90
2019-03-25T19:25:29.675Z,9.00
2019-03-25T19:27:58.810Z,9.00
2019-03-25T19:30:28.156Z,9.00
2019-03-25T19:32:57.194Z,9.00
2019-03-25T19:35:26.203Z,9.00
2019-03-25T19:37:55.175Z,8.90
2019-03-25T19:40:24.190Z,8.80
2019-03-25T19:42:53.162Z,8.80
2019-03-25T19:45:22.321Z,8.90
2019-03-25T19:47:51.356Z,9.00
2019-03-25T19:50:20.509Z,9.10
2019-03-25T19:52:49.559Z,8.90
2019-03-25T19:55:18.533Z,9.00
2019-03-25T19:57:47.618Z,9.00
2019-03-25T20:00:18.502Z,8.80
2019-03-25T20:02:47.557Z,8.80
2019-03-25T20:05:16.672Z,8.70
2019-03-25T20:07:45.678Z,8.70
2019-03-25T20:10:20.893Z,8.80
2019-03-25T20:12:49.914Z,8.80
2019-03-25T20:15:18.913Z,8.80
2019-03-25T20:17:48.160Z,8.70
2019-03-25T20:20:17.278Z,8.70
2019-03-25T20:22:46.334Z,8.70
2019-03-25T20:25:15.353Z,8.70
2019-03-25T20:27:44.402Z,8.70
2019-03-25T20:30:14.207Z,8.60
2019-03-25T20:32:43.297Z,8.70
2019-03-25T20:35:12.486Z,8.70
2019-03-25T20:37:41.508Z,8.80
2019-03-25T20:40:10.716Z,8.60
2019-03-25T20:42:39.717Z,8.60
2019-03-25T20:45:08.951Z,8.60
2019-03-25T20:47:37.974Z,8.70
2019-03-25T20:50:08.463Z,8.50
2019-03-25T20:52:37.596Z,8.50
2019-03-25T20:55:07.432Z,8.50
2019-03-25T20:57:36.567Z,8.50
2019-03-25T21:00:09.423Z,8.50
2019-03-25T21:02:44.788Z,8.50
2019-03-25T21:05:09.416Z,8.30
2019-03-25T21:07:38.440Z,8.30
2019-03-25T21:10:08.156Z,8.30
2019-03-25T21:12:38.579Z,8.40
2019-03-25T21:15:08.961Z,8.40
2019-03-25T21:17:37.945Z,8.30
2019-03-25T21:20:08.215Z,8.30
2019-03-25T21:22:37.318Z,8.30
2019-03-25T21:25:07.606Z,8.40
2019-03-25T21:27:36.635Z,8.30
2019-03-25T21:30:07.816Z,8.40
2019-03-25T21:32:36.916Z,8.40
2019-03-25T21:35:07.203Z,8.40
2019-03-25T21:37:36.409Z,8.40
2019-03-25T21:40:07.521Z,8.30
2019-03-25T21:42:36.552Z,8.30
2019-03-25T21:45:09.819Z,8.20
2019-03-25T21:47:39.030Z,8.30
2019-03-25T21:50:08.652Z,8.20
2019-03-25T21:52:37.677Z,8.10
2019-03-25T21:55:07.653Z,8.10
2019-03-25T21:57:36.797Z,8.10
2019-03-25T22:00:07.188Z,8.20
2019-03-25T22:02:36.147Z,8.10
2019-03-25T22:05:07.254Z,8.10
2019-03-25T22:07:36.293Z,8.10
2019-03-25T22:10:06.047Z,8.00
2019-03-25T22:12:35.429Z,8.10
2019-03-25T22:15:08.348Z,8.00
2019-03-25T22:17:38.353Z,8.00
2019-03-25T22:20:11.056Z,8.00
2019-03-25T22:22:40.103Z,8.00
2019-03-25T22:25:10.421Z,8.10
2019-03-25T22:27:39.374Z,8.10
2019-03-25T22:30:08.883Z,8.10
2019-03-25T22:32:37.957Z,8.10
2019-03-25T22:35:07.388Z,8.00
2019-03-25T22:37:36.446Z,8.10
2019-03-25T22:40:08.950Z,8.10
2019-03-25T22:42:37.995Z,8.10
2019-03-25T22:45:07.332Z,7.90
2019-03-25T22:47:36.876Z,8.00
2019-03-25T22:50:07.756Z,8.00
2019-03-25T22:52:36.792Z,8.00
2019-03-25T22:55:06.996Z,8.10
2019-03-25T22:57:35.962Z,8.10
2019-03-25T23:00:06.958Z,7.90
2019-03-25T23:02:36.078Z,7.90
2019-03-25T23:05:06.283Z,8.00
2019-03-25T23:07:35.258Z,7.90
2019-03-25T23:10:04.746Z,8.10
2019-03-25T23:12:33.725Z,8.10
2019-03-25T23:15:02.759Z,8.00
2019-03-25T23:17:31.730Z,8.00
2019-03-25T23:20:00.697Z,8.00
2019-03-25T23:22:29.667Z,7.80
2019-03-25T23:24:58.623Z,7.80
2019-03-25T23:27:27.750Z,7.70
2019-03-25T23:29:56.775Z,7.70
2019-03-25T23:32:25.804Z,7.70
2019-03-25T23:34:54.838Z,7.80
2019-03-25T23:37:23.818Z,7.70
2019-03-25T23:39:52.875Z,7.60
2019-03-25T23:42:22.011Z,7.50
2019-03-25T23:44:51.043Z,7.40
2019-03-25T23:47:20.027Z,7.50
2019-03-25T23:49:48.986Z,7.50
2019-03-25T23:52:18.159Z,7.60
2019-03-25T23:54:47.117Z,7.60
2019-03-25T23:57:16.133Z,7.40
2019-03-25T23:59:45.093Z,7.50
